Flight Track Log - Related Links

Times and Time Zones

All times are in EDT time to prevent confusion due to time zone crossing. See the AAL832 flight status page for this flight to view local times or setup timezone preferences in your user account.

Time Position Orientation Groundspeed Altitude Reporting Facility
EDT Latitude Longitude Course Direction KTS MPH feet Rate Location/Type
Wed 01:22:49 PM 33.9360 -118.4210 263° West 179 206 700  Level FlightAware ADS-B
Wed 01:23:19 PM 33.9320 -118.4570 262° West 201 231 1,600 1,600 Climbing FlightAware ADS-B
Wed 01:23:34 PM 33.9290 -118.4720 256° West 215 247 1,900 1,350 Climbing FlightAware ADS-B
Wed 01:23:59 PM 33.9190 -118.5040 249° West 246 283 2,500 1,855 Climbing FlightAware ADS-B
Wed 01:24:29 PM 33.9050 -118.5440 247° West 259 298 3,600 2,291 Climbing FlightAware ADS-B
Wed 01:24:54 PM 33.8930 -118.5760 246° West 261 300 4,600 2,571 Climbing FlightAware ADS-B
Wed 01:25:04 PM 33.8850 -118.5870 229° Southwest 257 296 5,100 1,920 Climbing FlightAware ADS-B
Wed 01:25:19 PM 33.8710 -118.5970 211° Southwest 268 308 5,400 2,229 Climbing FlightAware ADS-B
Wed 01:26:14 PM 33.8150 -118.5410 140° Southeast 285 328 7,700 2,338 Climbing FlightAware ADS-B
Wed 01:26:36 PM 33.8270 -118.5090 66° East 292 336 8,400 2,118 Climbing FlightAware ADS-B
Wed 01:26:48 PM 33.8400 -118.4970 37° Northeast 291 335 8,900 2,500 Climbing FlightAware ADS-B
Wed 01:27:00 PM 33.8540 -118.4870 31° Northeast 288 331 9,400 1,714 Climbing FlightAware ADS-B
Wed 01:27:44 PM 33.9050 -118.4510 30° Northeast 304 350 10,500 1,535 Climbing FlightAware ADS-B
Wed 01:28:26 PM 33.9510 -118.4010 42° Northeast 327 376 11,600 1,714 Climbing FlightAware ADS-B
Wed 01:29:08 PM 33.9860 -118.3380 56° Northeast 337 388 12,900 1,571 Climbing FlightAware ADS-B
Wed 01:29:50 PM 34.0250 -118.2690 56° Northeast 362 417 13,800 1,326 Climbing FlightAware ADS-B
Wed 01:30:34 PM 34.0690 -118.1940 55° Northeast 388 447 14,800 1,500 Climbing FlightAware ADS-B
Wed 01:31:14 PM 34.1110 -118.1190 56° Northeast 404 465 15,900 1,735 Climbing FlightAware ADS-B
Wed 01:31:57 PM 34.1550 -118.0400 56° Northeast 412 474 17,200 1,902 Climbing FlightAware ADS-B
Wed 01:32:36 PM 34.1970 -117.9640 56° Northeast 418 481 18,500 1,906 Climbing FlightAware ADS-B
Wed 01:33:22 PM 34.2480 -117.8760 55° Northeast 424 488 19,900 1,674 Climbing FlightAware ADS-B
Wed 01:34:02 PM 34.2930 -117.7950 56° Northeast 432 497 20,900 1,500 Climbing FlightAware ADS-B
Wed 01:34:46 PM 34.3410 -117.7080 56° Northeast 440 506 22,000 1,425 Climbing FlightAware ADS-B
Wed 01:35:22 PM 34.3840 -117.6320 56° Northeast 449 517 22,800 1,425 Climbing FlightAware ADS-B
Wed 01:36:06 PM 34.4350 -117.5410 56° Northeast 454 522 23,900 1,500 Climbing FlightAware ADS-B
Wed 01:36:50 PM 34.4950 -117.4510 51° Northeast 457 526 25,000 1,395 Climbing FlightAware ADS-B
Wed 01:37:32 PM 34.5530 -117.3710 49° Northeast 461 531 25,900 1,200 Climbing FlightAware ADS-B
Wed 01:38:10 PM 34.6070 -117.2950 49° Northeast 468 539 26,600 1,024 Climbing FlightAware ADS-B
Wed 01:38:54 PM 34.6650 -117.2120 50° Northeast 475 547 27,300 1,047 Climbing FlightAware ADS-B
Wed 01:39:36 PM 34.7280 -117.1240 49° Northeast 480 552 28,100 1,091 Climbing FlightAware ADS-B
Wed 01:40:22 PM 34.7980 -117.0250 49° Northeast 487 560 28,900 1,116 Climbing FlightAware ADS-B
Wed 01:41:02 PM 34.8550 -116.9440 49° Northeast 487 560 29,700 1,469 Climbing FlightAware ADS-B
Wed 01:42:00 PM 34.9400 -116.8240 49° Northeast 472 543 31,300 1,563 Climbing FlightAware ADS-B
Wed 01:42:38 PM 34.9930 -116.7470 50° Northeast 466 536 32,200 1,214 Climbing FlightAware ADS-B
Wed 01:43:24 PM 35.0550 -116.6600 49° Northeast 466 536 33,000 571 Climbing FlightAware ADS-B
Wed 01:44:02 PM 35.1000 -116.5950 50° Northeast 466 536 33,000  Level FlightAware ADS-B
Wed 01:44:50 PM 35.1580 -116.5140 49° Northeast 466 536 33,000  Level FlightAware ADS-B
Wed 01:45:28 PM 35.2040 -116.4500 49° Northeast 466 536 33,000  Level FlightAware ADS-B
Wed 01:46:04 PM 35.2470 -116.3890 49° Northeast 466 536 33,000  Level FlightAware ADS-B
Wed 01:46:50 PM 35.3470 -116.2380 51° Northeast 471 542 33,000  Level FlightAware ADS-B
Wed 01:47:47 PM 35.4220 -116.1310 49° Northeast 471 542 33,000  Level FlightAware ADS-B
Wed 01:48:23 PM 35.4660 -116.0690 49° Northeast 471 542 33,000  Level FlightAware ADS-B
Wed 01:49:12 PM 35.5470 -115.9480 51° Northeast 474 545 33,000  Level FlightAware ADS-B
Wed 01:49:54 PM 35.6070 -115.8590 50° Northeast 474 545 33,000  Level FlightAware ADS-B
Wed 01:50:30 PM 35.6550 -115.7880 50° Northeast 474 545 33,000  Level FlightAware ADS-B
Wed 01:51:20 PM 35.7220 -115.6810 52° Northeast 474 545 33,000  Level FlightAware ADS-B
Wed 01:52:02 PM 35.7790 -115.5890 53° Northeast 473 544 33,000  Level FlightAware ADS-B
Wed 01:52:40 PM 35.8290 -115.5090 52° Northeast 475 547 33,000  Level FlightAware ADS-B
Wed 01:53:24 PM 35.8890 -115.4130 52° Northeast 477 549 33,000  Level FlightAware ADS-B
Wed 01:54:06 PM 35.9440 -115.3250 52° Northeast 478 550 33,000  Level FlightAware ADS-B
Wed 01:54:49 PM 36.0030 -115.2310 52° Northeast 478 550 33,000  Level FlightAware ADS-B
Wed 01:55:30 PM 36.0580 -115.1410 53° Northeast 478 550 33,000  Level FlightAware ADS-B
Wed 01:56:14 PM 36.1170 -115.0460 52° Northeast 478 550 33,000  Level FlightAware ADS-B
Wed 01:56:56 PM 36.1730 -114.9550 53° Northeast 479 551 33,000  Level FlightAware ADS-B
Wed 01:57:40 PM 36.2320 -114.8580 53° Northeast 477 549 33,000  Level FlightAware ADS-B
Wed 01:58:20 PM 36.2850 -114.7710 53° Northeast 477 549 33,000 512 Level FlightAware ADS-B
Wed 01:59:02 PM 36.3410 -114.6800 53° Northeast 475 547 33,700 1,024 Climbing FlightAware ADS-B
Wed 01:59:42 PM 36.3950 -114.5920 53° Northeast 472 543 34,400 1,038 Climbing FlightAware ADS-B
Wed 01:59:54 PM 36.4100 -114.5670 53° Northeast 472 543 34,600 300 Climbing FlightAware ADS-B
Wed 02:01:42 PM 36.5520 -114.3330 53° Northeast 477 549 35,000 160 Climbing FlightAware ADS-B
Wed 02:02:24 PM 36.6070 -114.2410 53° Northeast 478 550 35,000  Level FlightAware ADS-B
Wed 02:03:04 PM 36.6610 -114.1520 53° Northeast 478 550 35,000  Level FlightAware ADS-B
Wed 02:03:42 PM 36.7110 -114.0680 53° Northeast 478 550 35,000  Level FlightAware ADS-B
Wed 02:04:32 PM 36.7760 -113.9590 53° Northeast 478 550 35,000  Level FlightAware ADS-B
Wed 02:05:12 PM 36.8280 -113.8720 53° Northeast 476 548 35,000  Level FlightAware ADS-B
Wed 02:05:54 PM 36.8850 -113.7770 53° Northeast 477 549 35,000  Level FlightAware ADS-B
Wed 02:06:36 PM 36.9400 -113.6840 53° Northeast 477 549 35,000  Level FlightAware ADS-B
Wed 02:07:16 PM 36.9900 -113.5990 54° Northeast 478 550 35,000  Level FlightAware ADS-B
Wed 02:07:57 PM 37.0460 -113.5050 53° Northeast 478 550 35,000  Level FlightAware ADS-B
Wed 02:08:49 PM 37.1050 -113.4040 54° Northeast 478 550 35,000  Level FlightAware ADS-B
Wed 02:09:52 PM 37.1950 -113.2500 54° Northeast 478 550 35,000  Level FlightAware ADS-B
Wed 02:10:30 PM 37.2380 -113.1790 53° Northeast 478 550 35,000  Level FlightAware ADS-B
Wed 02:11:46 PM 37.3360 -113.0080 54° Northeast 477 549 35,000  Level FlightAware ADS-B
Wed 02:12:27 PM 37.3810 -112.9300 54° Northeast 477 549 35,000  Level FlightAware ADS-B
Wed 02:13:05 PM 37.4230 -112.8570 54° Northeast 477 549 35,000  Level FlightAware ADS-B
Wed 02:13:45 PM 37.4670 -112.7810 54° Northeast 477 549 35,000  Level FlightAware ADS-B
Wed 02:14:34 PM 37.5210 -112.6870 54° Northeast 477 549 35,000  Level FlightAware ADS-B
Wed 02:15:11 PM 37.5620 -112.6160 54° Northeast 477 549 35,000  Level FlightAware ADS-B
Wed 02:15:56 PM 37.6110 -112.5300 54° Northeast 477 549 35,000  Level FlightAware ADS-B
Wed 02:16:34 PM 37.6530 -112.4570 54° Northeast 477 549 35,000  Level FlightAware ADS-B
Wed 02:17:36 PM 37.7220 -112.3380 54° Northeast 477 549 35,000  Level FlightAware ADS-B
Wed 02:18:12 PM 37.7610 -112.2690 54° Northeast 477 549 35,000  Level FlightAware ADS-B
Wed 02:19:00 PM 37.8140 -112.1770 54° Northeast 477 549 35,000  Level FlightAware ADS-B
Wed 02:19:36 PM 37.8540 -112.1080 54° Northeast 477 549 35,000  Level FlightAware ADS-B
Wed 02:20:24 PM 37.9070 -112.0160 54° Northeast 477 549 35,000  Level FlightAware ADS-B
Wed 02:21:01 PM 37.9480 -111.9440 54° Northeast 477 549 35,000  Level FlightAware ADS-B
Wed 02:23:57 PM 38.2838 -111.3330 55° Northeast 476 548 35,000  Level FlightAware ADS-B
Wed 02:24:50 PM 38.3511 -111.2100 55° Northeast 475 547 35,000  Level FlightAware ADS-B
Wed 02:25:23 PM 38.3918 -111.1360 55° Northeast 475 547 35,000  Level FlightAware ADS-B
Wed 02:25:53 PM 38.4214 -111.0875 55° Northeast 473 544 35,000  Level Salt Lake Center
Wed 02:26:55 PM 38.4958 -110.9486 56° Northeast 475 547 35,000  Level Salt Lake Center
Wed 02:27:58 PM 38.5758 -110.8014 55° Northeast 475 547 35,000  Level Salt Lake Center
Wed 02:29:00 PM 38.6600 -110.6461 55° Northeast 477 549 35,000  Level Salt Lake Center
Wed 02:30:02 PM 38.7317 -110.5125 55° Northeast 476 548 35,000  Level Salt Lake Center
Wed 02:31:04 PM 38.8158 -110.3558 55° Northeast 478 550 35,000  Level Salt Lake Center
Wed 02:32:06 PM 38.8875 -110.2211 56° Northeast 479 551 35,000  Level Salt Lake Center
Wed 02:37:38 PM 39.2980 -109.4390 56° Northeast 476 548 35,000  Level FlightAware ADS-B
Wed 02:38:26 PM 39.3490 -109.3430 55° Northeast 476 548 35,000  Level FlightAware ADS-B
Wed 02:39:27 PM 39.4390 -109.1670 56° Northeast 476 548 35,000  Level FlightAware ADS-B
Wed 02:40:09 PM 39.4810 -109.0860 56° Northeast 476 548 35,000  Level FlightAware ADS-B
Wed 02:41:09 PM 39.5440 -108.9660 56° Northeast 476 548 35,000  Level FlightAware ADS-B
Wed 02:41:45 PM 39.5820 -108.8930 56° Northeast 476 548 35,000  Level FlightAware ADS-B
Wed 02:42:32 PM 39.6310 -108.7980 56° Northeast 476 548 35,000  Level FlightAware ADS-B
Wed 02:43:11 PM 39.7080 -108.6420 57° Northeast 473 544 35,000  Level FlightAware ADS-B
Wed 02:44:06 PM 39.7760 -108.5070 57° Northeast 475 547 35,000  Level FlightAware ADS-B
Wed 02:44:51 PM 39.8280 -108.4040 57° Northeast 474 545 35,000  Level FlightAware ADS-B
Wed 02:46:01 PM 39.9090 -108.2430 57° Northeast 474 545 35,000  Level FlightAware ADS-B
Wed 02:46:41 PM 39.9620 -108.1370 57° Northeast 474 545 35,000  Level FlightAware ADS-B
Wed 02:47:20 PM 40.0010 -108.0580 57° Northeast 474 545 35,000  Level FlightAware ADS-B
Wed 02:48:03 PM 39.9990 -108.0620 237° Southwest 474 545 35,000  Level FlightAware ADS-B
Wed 02:49:05 PM 40.0620 -107.9350 57° Northeast 474 545 35,000  Level FlightAware ADS-B
Wed 02:49:44 PM 40.1020 -107.8550 57° Northeast 474 545 35,000 1,290 Level FlightAware ADS-B
Wed 02:50:38 PM 40.2270 -107.5630 61° Northeast 464 534 37,000 1,412 Climbing FlightAware ADS-B
Wed 02:51:09 PM 40.2590 -107.4880 61° Northeast 465 535 37,000  Level FlightAware ADS-B
Wed 02:51:50 PM 40.3050 -107.3840 60° Northeast 467 537 37,000  Level FlightAware ADS-B
Wed 02:52:35 PM 40.3540 -107.2690 61° Northeast 468 539 37,000  Level FlightAware ADS-B
Wed 02:53:15 PM 40.3960 -107.1730 60° Northeast 469 540 37,000  Level FlightAware ADS-B
Wed 02:54:07 PM 40.4470 -107.0540 61° Northeast 469 540 37,000  Level FlightAware ADS-B
Wed 02:54:50 PM 40.4930 -106.9470 60° Northeast 468 539 37,000  Level FlightAware ADS-B
Wed 02:55:33 PM 40.5430 -106.8300 61° Northeast 470 541 37,000  Level FlightAware ADS-B
Wed 02:56:20 PM 40.5930 -106.7130 61° Northeast 470 541 37,000  Level FlightAware ADS-B
Wed 02:57:01 PM 40.6310 -106.6260 60° Northeast 470 541 37,000  Level FlightAware ADS-B
Wed 02:57:36 PM 40.6630 -106.5520 60° Northeast 470 541 37,000  Level FlightAware ADS-B
Wed 02:58:20 PM 40.7210 -106.4100 62° Northeast 469 540 37,000  Level FlightAware ADS-B
Wed 02:59:04 PM 40.7630 -106.3090 61° Northeast 470 541 37,000  Level FlightAware ADS-B
Wed 02:59:47 PM 40.8110 -106.1940 61° Northeast 468 539 37,000  Level FlightAware ADS-B
Wed 03:03:25 PM 41.0390 -105.6440 61° Northeast 472 543 37,000  Level FlightAware ADS-B
Wed 03:04:09 PM 41.0840 -105.5340 61° Northeast 473 544 37,000  Level FlightAware ADS-B
Wed 03:04:53 PM 41.1300 -105.4210 62° Northeast 474 545 37,000  Level FlightAware ADS-B
Wed 03:05:48 PM 41.1860 -105.2830 62° Northeast 474 545 37,000  Level FlightAware ADS-B
Wed 03:06:34 PM 41.2345 -105.1640 62° Northeast 472 543 37,000  Level FlightAware ADS-B
Wed 03:07:04 PM 41.2655 -105.0870 62° Northeast 470 541 37,000  Level FlightAware ADS-B
Wed 03:07:34 PM 41.2967 -105.0100 62° Northeast 470 541 37,000  Level FlightAware ADS-B
Wed 03:08:05 PM 41.3276 -104.9320 62° Northeast 469 540 37,000  Level FlightAware ADS-B
Wed 03:08:49 PM 41.3726 -104.8200 62° Northeast 467 537 37,000  Level FlightAware ADS-B
Wed 03:09:25 PM 41.4089 -104.7290 62° Northeast 467 537 37,000  Level FlightAware ADS-B
Wed 03:09:56 PM 41.4399 -104.6510 62° Northeast 466 536 37,000  Level FlightAware ADS-B
Wed 03:10:29 PM 41.4738 -104.5650 62° Northeast 467 537 37,000  Level FlightAware ADS-B
Wed 03:10:59 PM 41.5039 -104.4890 62° Northeast 467 537 37,000  Level FlightAware ADS-B
Wed 03:11:35 PM 41.5395 -104.3990 62° Northeast 466 536 37,000  Level FlightAware ADS-B
Wed 03:12:05 PM 41.5697 -104.3220 62° Northeast 467 537 37,000  Level FlightAware ADS-B
Wed 03:12:35 PM 41.5998 -104.2450 62° Northeast 469 540 37,000  Level FlightAware ADS-B
Wed 03:13:06 PM 41.6300 -104.1670 63° Northeast 471 542 37,000  Level FlightAware ADS-B
Wed 03:13:39 PM 41.6638 -104.0800 63° Northeast 472 543 37,000  Level FlightAware ADS-B
Wed 03:14:14 PM 41.6986 -103.9910 62° Northeast 472 543 37,000  Level FlightAware ADS-B
Wed 03:14:49 PM 41.7336 -103.9000 63° Northeast 474 545 37,000  Level FlightAware ADS-B
Wed 03:15:21 PM 41.7657 -103.8170 63° Northeast 473 544 37,000  Level FlightAware ADS-B
Wed 03:15:53 PM 41.7987 -103.7320 62° Northeast 475 547 37,000  Level FlightAware ADS-B
Wed 03:16:28 PM 41.8337 -103.6400 63° Northeast 476 548 37,000  Level FlightAware ADS-B
Wed 03:17:08 PM 41.8736 -103.5350 63° Northeast 478 550 37,000  Level FlightAware ADS-B
Wed 03:17:25 PM 41.8877 -103.4900 67° East 483 556 37,000  Level FlightAware ADS-B
Wed 03:17:35 PM 41.8947 -103.4610 72° East 485 558 37,000  Level FlightAware ADS-B
Wed 03:17:45 PM 41.9005 -103.4330 74° East 487 560 37,000  Level FlightAware ADS-B
Wed 03:18:16 PM 41.9141 -103.3400 79° East 490 564 37,000  Level FlightAware ADS-B
Wed 03:18:46 PM 41.9268 -103.2500 79° East 489 563 37,000  Level FlightAware ADS-B
Wed 03:19:16 PM 41.9395 -103.1590 79° East 490 564 37,000  Level FlightAware ADS-B
Wed 03:19:51 PM 41.9540 -103.0550 79° East 490 564 37,000  Level FlightAware ADS-B
Wed 03:20:26 PM 41.9685 -102.9500 79° East 490 564 37,000  Level FlightAware ADS-B
Wed 03:20:57 PM 41.9809 -102.8600 79° East 491 565 37,000  Level FlightAware ADS-B
Wed 03:21:33 PM 41.9955 -102.7520 80° East 491 565 37,000  Level FlightAware ADS-B
Wed 03:22:07 PM 42.0093 -102.6510 80° East 491 565 37,000  Level FlightAware ADS-B
Wed 03:22:38 PM 42.0217 -102.5580 80° East 491 565 37,000  Level FlightAware ADS-B
Wed 03:23:10 PM 42.0348 -102.4600 80° East 491 565 37,000  Level FlightAware ADS-B
Wed 03:23:42 PM 42.0474 -102.3640 80° East 491 565 37,000  Level FlightAware ADS-B
Wed 03:24:14 PM 42.0598 -102.2700 80° East 491 565 37,000  Level FlightAware ADS-B
Wed 03:24:58 PM 42.0769 -102.1380 80° East 491 565 37,000  Level FlightAware ADS-B
Wed 03:26:03 PM 42.1026 -101.9400 80° East 491 565 37,000  Level FlightAware ADS-B
Wed 03:26:45 PM 42.1161 -101.8272 80° East 488 562 37,000  Level Minneapolis Center
Wed 03:27:47 PM 42.1386 -101.6439 81° East 494 568 37,000  Level Minneapolis Center
Wed 03:29:01 PM 42.1661 -101.4272 80° East 491 565 37,000  Level Minneapolis Center
Wed 03:30:04 PM 42.1878 -101.2456 81° East 491 565 37,000  Level Minneapolis Center
Wed 03:31:06 PM 42.2108 -101.0642 80° East 491 565 37,000  Level Minneapolis Center
Wed 03:32:08 PM 42.2328 -100.8806 81° East 494 568 37,000  Level Minneapolis Center
Wed 03:37:37 PM 42.3502 -99.8466 81° East 492 566 37,000  Level FlightAware ADS-B
Wed 03:38:08 PM 42.3602 -99.7549 82° East 492 566 37,000  Level FlightAware ADS-B
Wed 03:38:38 PM 42.3701 -99.6630 82° East 492 566 37,000  Level FlightAware ADS-B
Wed 03:39:08 PM 42.3800 -99.5699 82° East 492 566 37,000  Level FlightAware ADS-B
Wed 03:39:39 PM 42.3896 -99.4788 82° East 492 566 37,000  Level FlightAware ADS-B
Wed 03:40:13 PM 42.4006 -99.3745 82° East 492 566 37,000  Level FlightAware ADS-B
Wed 03:41:16 PM 42.4205 -99.1829 82° East 492 566 37,000  Level FlightAware ADS-B
Wed 03:41:47 PM 42.4303 -99.0890 82° East 492 566 37,000  Level FlightAware ADS-B
Wed 03:42:17 PM 42.4397 -98.9963 82° East 493 567 37,000  Level FlightAware ADS-B
Wed 03:42:48 PM 42.4490 -98.9037 82° East 492 566 37,000  Level FlightAware ADS-B
Wed 03:43:18 PM 42.4581 -98.8122 82° East 493 567 37,000  Level FlightAware ADS-B
Wed 03:44:48 PM 42.4782 -98.5343 84° East 494 568 37,000  Level FlightAware ADS-B
Wed 03:45:22 PM 42.4834 -98.4286 86° East 498 573 37,000  Level FlightAware ADS-B
Wed 03:45:52 PM 42.4879 -98.3348 86° East 499 574 37,000  Level FlightAware ADS-B
Wed 03:46:23 PM 42.4926 -98.2405 86° East 500 575 37,000  Level FlightAware ADS-B
Wed 03:46:53 PM 42.4969 -98.1470 86° East 500 575 37,000  Level FlightAware ADS-B
Wed 03:47:24 PM 42.5013 -98.0500 86° East 500 575 37,000  Level FlightAware ADS-B
Wed 03:47:54 PM 42.5056 -97.9561 86° East 500 575 37,000 174 Level FlightAware ADS-B
Wed 03:48:33 PM 42.5110 -97.8340 87° East 499 574 37,200 696 Climbing FlightAware ADS-B
Wed 03:49:03 PM 42.5151 -97.7403 87° East 492 566 37,800 762 Climbing FlightAware ADS-B
Wed 03:49:36 PM 42.5193 -97.6420 87° East 492 566 38,000 190 Climbing FlightAware ADS-B
Wed 03:50:06 PM 42.5233 -97.5497 87° East 493 567 38,000  Level FlightAware ADS-B
Wed 03:50:37 PM 42.5271 -97.4545 87° East 494 568 38,000  Level FlightAware ADS-B
Wed 03:51:23 PM 42.5307 -97.3671 87° East 495 570 38,000  Level FlightAware ADS-B
Wed 03:51:53 PM 42.5364 -97.2190 87° East 496 571 38,000  Level FlightAware ADS-B
Wed 03:53:02 PM 42.5439 -97.0167 87° East 490 564 38,000  Level Minneapolis Center
Wed 03:54:04 PM 42.5506 -96.8300 87° East 492 566 38,000  Level Minneapolis Center
Wed 03:55:18 PM 42.5578 -96.6392 87° East 499 574 38,000  Level Minneapolis Center
Wed 03:56:21 PM 42.5639 -96.4156 88° East 496 571 38,000  Level Minneapolis Center
Wed 03:57:23 PM 42.5703 -96.2286 87° East 496 571 38,000  Level Minneapolis Center
Wed 03:58:25 PM 42.5761 -96.0397 88° East 499 574 38,000  Level Minneapolis Center
Wed 03:59:27 PM 42.5825 -95.8161 88° East 495 570 38,000  Level Minneapolis Center
Wed 04:04:55 PM 42.7130 -94.8510 88° East 488 562 38,000  Level FlightAware ADS-B
Wed 04:05:06 PM 42.7206 -94.7975 79° East 492 566 38,000 267 Level FlightAware ADS-B
Wed 04:05:40 PM 42.7370 -94.6914 78° East 493 567 38,200 612 Climbing FlightAware ADS-B
Wed 04:06:44 PM 42.7688 -94.5032 77° East 489 563 39,000 449 Climbing FlightAware ADS-B
Wed 04:07:27 PM 42.7919 -94.3750 76° East 483 556 39,000  Level FlightAware ADS-B
Wed 04:08:15 PM 42.8176 -94.2333 76° East 482 555 39,000  Level FlightAware ADS-B
Wed 04:08:51 PM 42.8373 -94.1283 76° East 482 555 39,000  Level FlightAware ADS-B
Wed 04:10:02 PM 42.8760 -93.9230 76° East 480 552 39,000  Level FlightAware ADS-B
Wed 04:10:44 PM 42.9010 -93.8000 74° East 480 552 39,000  Level FlightAware ADS-B
Wed 04:11:26 PM 42.9260 -93.6790 74° East 480 552 39,000  Level FlightAware ADS-B
Wed 04:12:06 PM 42.9490 -93.5640 75° East 480 552 39,000  Level FlightAware ADS-B
Wed 04:12:48 PM 42.9710 -93.4370 77° East 481 554 39,000  Level FlightAware ADS-B
Wed 04:13:32 PM 42.9910 -93.3030 78° East 488 562 39,000  Level FlightAware ADS-B
Wed 04:14:12 PM 43.0050 -93.1850 81° East 490 564 39,000  Level FlightAware ADS-B
Wed 04:14:52 PM 43.0160 -93.0600 83° East 491 565 39,000  Level FlightAware ADS-B
Wed 04:15:30 PM 43.0250 -92.9430 84° East 492 566 39,000  Level FlightAware ADS-B
Wed 04:16:20 PM 43.0350 -92.7890 85° East 491 565 39,000  Level FlightAware ADS-B
Wed 04:17:00 PM 43.0420 -92.6670 85° East 490 564 39,000 -146 Level FlightAware ADS-B
Wed 04:17:42 PM 43.0490 -92.5360 86° East 497 572 38,800 -375 Descending FlightAware ADS-B
Wed 04:18:20 PM 43.0480 -92.4190 91° East 500 575 38,500 -424 Descending FlightAware ADS-B
Wed 04:19:07 PM 43.0290 -92.2710 100° East 507 583 38,200 -414 Descending FlightAware ADS-B
Wed 04:19:47 PM 43.0110 -92.1440 101° East 508 585 37,900 -500 Descending FlightAware ADS-B
Wed 04:20:31 PM 42.9930 -92.0060 100° East 506 582 37,500 -571 Descending FlightAware ADS-B
Wed 04:21:11 PM 42.9760 -91.8800 100° East 503 579 37,100 -1,395 Descending FlightAware ADS-B
Wed 04:21:57 PM 42.9570 -91.7390 100° East 491 565 35,500 -2,386 Descending FlightAware ADS-B
Wed 04:22:39 PM 42.9390 -91.6100 101° East 494 568 33,600 -2,925 Descending FlightAware ADS-B
Wed 04:23:17 PM 42.9230 -91.4950 101° East 513 590 31,600 -2,561 Descending FlightAware ADS-B
Wed 04:24:01 PM 42.9030 -91.3520 101° East 518 596 30,100 -1,953 Descending FlightAware ADS-B
Wed 04:24:43 PM 42.8840 -91.2180 101° East 516 594 28,800 -1,674 Descending FlightAware ADS-B
Wed 04:25:27 PM 42.8630 -91.0770 101° East 519 597 27,700 -1,286 Descending FlightAware ADS-B
Wed 04:26:07 PM 42.8450 -90.9520 101° East 509 586 27,000 -500 Descending FlightAware ADS-B
Wed 04:26:51 PM 42.8240 -90.8130 102° East 507 583 27,000  Level FlightAware ADS-B
Wed 04:27:29 PM 42.8060 -90.6940 102° East 505 581 27,000  Level FlightAware ADS-B
Wed 04:28:15 PM 42.7850 -90.5510 101° East 506 582 27,000  Level FlightAware ADS-B
Wed 04:28:51 PM 42.7680 -90.4390 102° East 506 582 27,000 -293 Level FlightAware ADS-B
Wed 04:29:37 PM 42.7460 -90.2970 102° East 504 580 26,600 -753 Descending FlightAware ADS-B
Wed 04:33:14 PM 42.6520 -89.6910 102° East 461 531 23,700 -953 Descending FlightAware ADS-B
Wed 04:33:55 PM 42.6300 -89.5490 102° East 438 504 22,500 -1,862 Descending FlightAware ADS-B
Wed 04:34:41 PM 42.6110 -89.4290 102° East 424 488 21,000 -2,023 Descending FlightAware ADS-B
Wed 04:35:21 PM 42.5940 -89.3260 103° East 416 479 19,600 -2,049 Descending FlightAware ADS-B
Wed 04:36:03 PM 42.5770 -89.2190 102° East 406 467 18,200 -1,814 Descending FlightAware ADS-B
Wed 04:36:47 PM 42.5590 -89.1130 103° East 406 467 17,000 -1,500 Descending FlightAware ADS-B
Wed 04:37:23 PM 42.5340 -89.0270 112° Southeast 404 465 16,200 -1,500 Descending FlightAware ADS-B
Wed 04:38:11 PM 42.5010 -88.9160 112° Southeast 401 461 14,900 -1,636 Descending FlightAware ADS-B
Wed 04:38:51 PM 42.4730 -88.8220 112° Southeast 401 461 13,800 -1,663 Descending FlightAware ADS-B
Wed 04:39:34 PM 42.4430 -88.7220 112° Southeast 398 458 12,600 -1,723 Descending FlightAware ADS-B
Wed 04:40:25 PM 42.4080 -88.6090 113° Southeast 391 450 11,100 -1,286 Descending FlightAware ADS-B
Wed 04:41:26 PM 42.3670 -88.4740 112° Southeast 368 423 10,200 -500 Descending FlightAware ADS-B
Wed 04:42:13 PM 42.3330 -88.3770 115° Southeast 362 417 10,200  Level FlightAware ADS-B
Wed 04:42:57 PM 42.2880 -88.3000 128° Southeast 365 420 10,200 -64 Level FlightAware ADS-B
Wed 04:43:47 PM 42.2340 -88.2110 129° Southeast 349 402 10,100 -205 Descending FlightAware ADS-B
Wed 04:44:25 PM 42.1990 -88.1520 129° Southeast 316 364 9,900 -655 Descending FlightAware ADS-B
Wed 04:44:42 PM 42.1790 -88.1280 138° Southeast 309 356 9,500 -1,500 Descending FlightAware ADS-B
Wed 04:45:09 PM 42.1510 -88.0950 139° Southeast 307 353 8,800 -1,418 Descending FlightAware ADS-B
Wed 04:45:37 PM 42.1240 -88.0560 133° Southeast 309 356 8,200 -1,034 Descending FlightAware ADS-B
Wed 04:46:07 PM 42.1110 -88.0010 108° East 293 337 7,800 -600 Descending FlightAware ADS-B
Wed 04:46:27 PM 42.1040 -87.9710 107° East 281 323 7,700 -360 Descending FlightAware ADS-B
Wed 04:46:57 PM 42.0920 -87.9210 108° East 259 298 7,500 -500 Descending FlightAware ADS-B
Wed 04:47:15 PM 42.0880 -87.8920 101° East 251 289 7,300 -667 Descending FlightAware ADS-B
Wed 04:47:42 PM 42.0890 -87.8520 88° East 244 281 7,000 -1,200 Descending FlightAware ADS-B
Wed 04:48:10 PM 42.0900 -87.8080 88° East 246 283 6,200 -1,714 Descending FlightAware ADS-B
Wed 04:48:38 PM 42.0920 -87.7640 86° East 252 290 5,400 -1,286 Descending FlightAware ADS-B
Wed 04:49:06 PM 42.0930 -87.7260 88° East 243 280 5,000 -667 Descending FlightAware ADS-B
Wed 04:49:32 PM 42.0810 -87.6920 115° Southeast 214 246 4,800 -714 Descending FlightAware ADS-B
Wed 04:49:48 PM 42.0670 -87.6860 162° South 198 228 4,500 -1,075 Descending FlightAware ADS-B
Wed 04:50:39 PM 42.0270 -87.6990 194° South 179 206 3,600 -844 Descending FlightAware ADS-B
Wed 04:51:56 PM 41.9920 -87.7700 236° Southwest 167 192 2,700 -743 Descending FlightAware ADS-B
Wed 04:52:24 PM 41.9870 -87.7940 254° West 153 176 2,300 -964 Descending FlightAware ADS-B
Wed 04:52:52 PM 41.9850 -87.8220 265° West 150 173 1,800 -889 Descending FlightAware ADS-B
Wed 04:53:18 PM 41.9840 -87.8460 267° West 148 170 1,500 -706 Descending FlightAware ADS-B
Wed 04:53:26 PM 41.9840 -87.8540 270° West 148 170 1,400 -750 Descending FlightAware ADS-B
Wed 04:54:37 PM 41.9840 -87.9090 270° West 59 68 -1,183 Descending FlightAware ADS-B
Wed 04:55:05 PM 41.9840 -87.9180 270° West 59 68  Level FlightAware ADS-B

Login

Don't have an account? Register now (free) for customized features, flight alerts, and more!